Airfield :
LOGIN :

Register | Disclaimer

   EN    FR    IT 

 










Legend :    VFR   Marginal VFR   IFR   Intensive IFR   Very Intensive IFR
Visi :
Ceiling :
>= 8 km
>= 3000ft
5 to 8 km
1000 to 3000 ft
1500m to 5 km
500 to 1000 ft
800 to 1500m
200 to 500 ft
< 800m
< 200 ft
Symbols :   Thunderstorms  Fog  Heavy snow  Heavy precipitations  Wind > 20 kt
SIGMETs :     Misc.  Thunderstorms  Icing  Turbulence  Mountain Waves  Volcanic Ashes







- Airport Elevation : 1363 ft


ETIC - Grafenwohr Army Air Field

CURRENT METAR :
  • 171717Z AUTO 16003KT 9000 BR OVC010 01/01 A3023 RMK AO2 CIG 007V010 SLP263 $

EXPIRED METARs :
  • 171702Z AUTO 18004KT 9000 BR BKN006 OVC009 01/01 A3023 RMK AO2 CIG 006V011 SLP263 $
  • 171650Z AUTO 17004KT 6000 BR FEW006 OVC011 01/01 A3022 RMK AO2 RAB27E44DZB44E50 SLP259 $
  • 171627Z AUTO 00000KT 5000 -RA BR BKN007 OVC011 01/01 A3022 RMK AO2 RAB27 SLP259 $
  • 171618Z AUTO 00000KT 5000 BR BKN007 BKN012 OVC017 01/01 A3022 RMK AO2 SLP259 $
  • 171556Z AUTO 11003KT 6000 BR OVC008 01/01 A3021 RMK AO2 SLP256 T00100010 $
  • 171511Z AUTO 00000KT 5000 BR OVC008 01/01 A3019 RMK AO2 SLP249 $
  • 171456Z AUTO 00000KT 6000 BR OVC007 01/01 A3018 RMK AO2 SLP245 T00120012 52012 $
  • 171441Z AUTO 00000KT 8000 BR OVC007 01/01 A3018 RMK AO2 SLP245 $

TAF AMD TAF ETIC
Valid from the 17 at 15:00 until the 18 at 18:00 UTC


171501Z 1715/1818 VRB06KT 8000 BR OVC007 620107 QNH3018INS
TEMPO 1715/1718 9999 NSW SCT007 OVC015 600107
BECMG 1717/1718 21008KT 6000 -RASN BKN005 OVC015 620107 QNH3022INS
BECMG 1808/1809 VRB06KT 3600 BR BKN005 620107 QNH3030INS TX01/1715Z TN00/1800Z LAST NO AMDS AFT 1715 NEXT 1806
No reported NOTAMs for that airfield.



MET'MAP, your aeronautical weather chart ! - Copyright ORBIFLY December 2007 - Disclaimer

ORBIFLY MET'MAP TEAM :

Programming & Development : Alexandra Zaïnal
Concept & Development : Baudouin d'Aumeries
Co-Development & Prog : Marc-Olivier Méhu
Technical & hardware support : Manuel Goepfert

Contact : metmap@orbifly.com




SOURCES & CREDITS :

   NOAA